createdAt,value
2018-02-10T00:01:38.658Z,81.78
2018-02-10T00:04:04.951Z,79.10
2018-02-10T00:06:30.911Z,81.00
2018-02-10T00:08:56.922Z,79.63
2018-02-10T00:11:22.724Z,77.12
2018-02-10T00:13:48.562Z,75.77
2018-02-10T00:16:14.549Z,76.97
2018-02-10T00:18:40.701Z,76.20
2018-02-10T00:21:06.482Z,77.57
2018-02-10T00:23:33.178Z,79.87
2018-02-10T00:25:58.962Z,80.70
2018-02-10T00:28:25.298Z,82.40
2018-02-10T00:30:51.100Z,80.03
2018-02-10T00:33:18.025Z,74.43
2018-02-10T00:35:43.806Z,76.10
2018-02-10T00:38:10.091Z,78.30
2018-02-10T00:40:35.895Z,82.03
2018-02-10T00:43:02.313Z,77.57
2018-02-10T00:45:28.650Z,82.45
2018-02-10T00:47:54.561Z,76.45
2018-02-10T00:50:21.176Z,77.87
2018-02-10T00:52:46.975Z,78.03
2018-02-10T00:55:14.811Z,81.67
2018-02-10T00:57:41.545Z,77.75
2018-02-10T01:00:07.368Z,79.97
2018-02-10T01:02:33.681Z,75.50
2018-02-10T01:04:59.458Z,74.47
2018-02-10T01:07:26.034Z,74.43
2018-02-10T01:09:51.821Z,77.20
2018-02-10T01:12:18.374Z,75.47
2018-02-10T01:14:44.182Z,78.72
2018-02-10T01:17:11.231Z,74.53
2018-02-10T01:19:37.296Z,77.62
2018-02-10T01:22:03.660Z,80.12
2018-02-10T01:24:29.752Z,73.75
2018-02-10T01:26:55.571Z,77.00
2018-02-10T01:29:21.377Z,77.50
2018-02-10T01:31:47.627Z,75.10
2018-02-10T01:34:13.421Z,75.62
2018-02-10T01:36:39.745Z,76.10
2018-02-10T01:39:05.521Z,72.22
2018-02-10T01:41:31.874Z,76.33
2018-02-10T01:43:57.685Z,78.32
2018-02-10T01:46:24.905Z,74.67
2018-02-10T01:48:50.802Z,73.87
2018-02-10T01:51:17.022Z,78.00
2018-02-10T01:53:42.806Z,73.53
2018-02-10T01:56:09.401Z,72.97
2018-02-10T01:58:35.712Z,74.85
2018-02-10T02:01:01.667Z,77.28
2018-02-10T02:03:27.458Z,74.03
2018-02-10T02:05:53.876Z,74.50
2018-02-10T02:08:19.661Z,73.07
2018-02-10T02:10:45.759Z,77.53
2018-02-10T02:13:11.574Z,77.93
2018-02-10T02:15:38.187Z,72.20
2018-02-10T02:18:04.018Z,78.40
2018-02-10T02:20:30.226Z,76.63
2018-02-10T02:22:56.001Z,72.80
2018-02-10T02:25:23.003Z,73.03
2018-02-10T02:27:48.833Z,75.55
2018-02-10T02:30:14.971Z,72.57
2018-02-10T02:32:40.751Z,74.25
2018-02-10T02:35:07.699Z,71.57
2018-02-10T02:37:33.539Z,74.50
2018-02-10T02:39:59.905Z,72.97
2018-02-10T02:42:25.780Z,77.32
2018-02-10T02:44:51.652Z,68.97
2018-02-10T02:47:17.414Z,73.67
2018-02-10T02:49:43.994Z,71.57
2018-02-10T02:52:09.786Z,71.87
2018-02-10T02:54:35.802Z,71.60
2018-02-10T02:57:01.622Z,69.03
2018-02-10T02:59:27.394Z,73.00
2018-02-10T03:01:53.173Z,69.43
2018-02-10T03:04:19.062Z,68.30
2018-02-10T03:06:44.841Z,66.13
2018-02-10T03:09:10.608Z,70.17
2018-02-10T03:11:36.414Z,72.77
2018-02-10T03:14:02.208Z,70.10
2018-02-10T03:16:27.982Z,68.47
2018-02-10T03:18:53.817Z,73.57
2018-02-10T03:21:19.598Z,72.80
2018-02-10T03:23:45.370Z,67.97
2018-02-10T03:26:11.146Z,70.23
2018-02-10T03:28:36.935Z,72.20
2018-02-10T03:31:02.757Z,67.67
2018-02-10T03:33:28.525Z,69.20
2018-02-10T03:35:54.310Z,73.10
2018-02-10T03:38:20.101Z,68.50
2018-02-10T03:40:45.873Z,70.27
2018-02-10T03:43:11.689Z,66.17
2018-02-10T03:45:37.489Z,70.07
2018-02-10T03:48:03.273Z,70.07
2018-02-10T03:50:29.053Z,69.00
2018-02-10T03:52:55.005Z,67.17
2018-02-10T03:55:20.775Z,71.73
2018-02-10T03:57:46.556Z,70.30
2018-02-10T04:00:12.357Z,72.20
2018-02-10T04:02:38.129Z,73.27
2018-02-10T04:05:03.898Z,67.57
2018-02-10T04:07:29.798Z,68.63
2018-02-10T04:09:55.565Z,69.00
2018-02-10T04:12:21.337Z,69.73
2018-02-10T04:14:47.133Z,68.33
2018-02-10T04:17:12.922Z,70.43
2018-02-10T04:19:38.785Z,67.80
2018-02-10T04:22:04.591Z,67.37
2018-02-10T04:24:30.376Z,64.00
2018-02-10T04:26:56.161Z,65.93
2018-02-10T04:29:21.954Z,67.57
2018-02-10T04:31:47.736Z,66.37
2018-02-10T04:34:13.505Z,63.90
2018-02-10T04:36:39.534Z,72.20
2018-02-10T04:39:05.317Z,66.80
2018-02-10T04:41:31.088Z,65.37
2018-02-10T04:43:56.872Z,64.50
2018-02-10T04:46:22.643Z,65.53
2018-02-10T04:48:48.426Z,64.40
2018-02-10T04:51:14.210Z,69.63
2018-02-10T04:53:39.981Z,63.63
2018-02-10T04:56:05.750Z,62.07
2018-02-10T04:58:31.542Z,66.50
2018-02-10T05:00:57.367Z,65.53
2018-02-10T05:03:23.128Z,64.00
2018-02-10T05:05:49.143Z,61.77
2018-02-10T05:08:14.920Z,61.10
2018-02-10T05:10:40.685Z,64.97
2018-02-10T05:13:06.478Z,59.20
2018-02-10T05:15:32.250Z,63.70
2018-02-10T05:17:58.062Z,62.63
2018-02-10T05:20:23.870Z,60.97
2018-02-10T05:22:49.681Z,63.87
2018-02-10T05:25:15.440Z,62.50
2018-02-10T05:27:41.237Z,61.80
2018-02-10T05:30:07.027Z,60.97
2018-02-10T05:32:32.805Z,58.97
2018-02-10T05:34:58.863Z,63.40
2018-02-10T05:37:24.644Z,59.78
2018-02-10T05:39:50.405Z,65.50
2018-02-10T05:42:16.193Z,62.93
2018-02-10T05:44:41.966Z,62.83
2018-02-10T05:47:07.729Z,61.97
2018-02-10T05:49:33.517Z,59.83
2018-02-10T05:51:59.289Z,59.60
2018-02-10T05:54:25.062Z,61.50
2018-02-10T05:56:50.862Z,61.47
2018-02-10T05:59:16.642Z,59.47
2018-02-10T06:01:42.656Z,59.60
2018-02-10T06:04:08.439Z,60.47
2018-02-10T06:06:34.217Z,62.03
2018-02-10T06:08:59.998Z,57.20
2018-02-10T06:11:25.772Z,60.97
2018-02-10T06:13:51.550Z,59.80
2018-02-10T06:16:17.352Z,59.93
2018-02-10T06:18:43.123Z,58.90
2018-02-10T06:21:08.902Z,59.73
2018-02-10T06:23:34.918Z,61.60
2018-02-10T06:26:00.695Z,59.70
2018-02-10T06:28:26.458Z,59.87
2018-02-10T06:30:52.368Z,59.53
2018-02-10T06:33:18.139Z,58.77
2018-02-10T06:35:43.913Z,59.50
2018-02-10T06:38:09.706Z,63.13
2018-02-10T06:40:35.514Z,60.17
2018-02-10T06:43:01.318Z,59.87
2018-02-10T06:45:27.111Z,59.27
2018-02-10T06:47:52.881Z,59.67
2018-02-10T06:50:18.662Z,60.07
2018-02-10T06:52:44.454Z,61.40
2018-02-10T06:55:10.229Z,60.57
2018-02-10T06:57:35.998Z,58.23
2018-02-10T07:00:01.842Z,60.97
2018-02-10T07:02:27.621Z,62.70
2018-02-10T07:04:53.401Z,61.37
2018-02-10T07:07:19.187Z,58.60
2018-02-10T07:09:44.960Z,59.73
2018-02-10T07:12:10.729Z,54.97
2018-02-10T07:14:36.522Z,59.37
2018-02-10T07:17:02.320Z,57.70
2018-02-10T07:19:28.106Z,58.03
2018-02-10T07:21:54.095Z,59.53
2018-02-10T07:24:19.858Z,57.50
2018-02-10T07:26:45.638Z,60.43
2018-02-10T07:29:11.430Z,59.10
2018-02-10T07:31:37.197Z,56.53
2018-02-10T07:34:02.994Z,58.20
2018-02-10T07:36:28.800Z,56.00
2018-02-10T07:38:54.594Z,59.00
2018-02-10T07:41:20.373Z,57.73
2018-02-10T07:43:46.394Z,56.10
2018-02-10T07:46:12.185Z,55.72
2018-02-10T07:48:37.955Z,56.33
2018-02-10T07:51:04.873Z,56.00
2018-02-10T07:53:30.648Z,59.35
2018-02-10T07:55:56.421Z,60.20
2018-02-10T07:58:22.223Z,53.30
2018-02-10T08:00:48.014Z,55.23
2018-02-10T08:03:13.799Z,56.37
2018-02-10T08:05:39.789Z,54.73
2018-02-10T08:08:05.577Z,55.92
2018-02-10T08:10:31.358Z,55.90
2018-02-10T08:12:58.133Z,56.90
2018-02-10T08:15:23.897Z,56.35
2018-02-10T08:17:49.675Z,56.67
2018-02-10T08:20:15.834Z,60.70
2018-02-10T08:22:41.606Z,56.65
2018-02-10T08:25:07.380Z,59.93
2018-02-10T08:27:33.167Z,56.80
2018-02-10T08:29:58.936Z,58.27
2018-02-10T08:32:24.746Z,57.90
2018-02-10T08:34:50.871Z,54.60
2018-02-10T08:37:16.649Z,57.30
2018-02-10T08:39:42.422Z,57.20
2018-02-10T08:42:08.294Z,55.63
2018-02-10T08:44:34.081Z,55.20
2018-02-10T08:46:59.843Z,56.20
2018-02-10T08:49:25.625Z,56.90
2018-02-10T08:51:51.399Z,56.07
2018-02-10T08:54:17.196Z,54.47
2018-02-10T08:56:42.988Z,53.97
2018-02-10T08:59:08.781Z,56.97
2018-02-10T09:01:34.725Z,55.27
2018-02-10T09:04:00.771Z,54.27
2018-02-10T09:06:26.546Z,60.30
2018-02-10T09:08:52.326Z,56.70
2018-02-10T09:11:18.147Z,54.30
2018-02-10T09:13:43.966Z,54.07
2018-02-10T09:16:10.843Z,55.27
2018-02-10T09:18:36.698Z,54.38
2018-02-10T09:21:02.891Z,55.00
2018-02-10T09:23:28.675Z,53.28
2018-02-10T09:25:55.423Z,53.83
2018-02-10T09:28:21.267Z,51.45
2018-02-10T09:30:47.796Z,54.03
2018-02-10T09:33:13.607Z,50.97
2018-02-10T09:35:40.166Z,54.53
2018-02-10T09:38:06.012Z,52.08
2018-02-10T09:40:32.752Z,51.87
2018-02-10T09:42:58.539Z,49.72
2018-02-10T09:45:24.397Z,49.23
2018-02-10T09:47:52.818Z,50.40
2018-02-10T09:50:18.593Z,49.25
2018-02-10T09:52:44.917Z,49.63
2018-02-10T09:55:10.721Z,52.22
2018-02-10T09:57:37.127Z,47.60
2018-02-10T10:00:02.951Z,46.50
2018-02-10T10:02:29.744Z,49.03
2018-02-10T10:04:55.578Z,49.78
2018-02-10T10:07:22.385Z,50.17
2018-02-10T10:09:48.445Z,48.78
2018-02-10T10:12:14.719Z,45.00
2018-02-10T10:14:40.566Z,38.28
2018-02-10T10:17:06.329Z,70.73
2018-02-10T10:19:32.121Z,49.00
2018-02-10T10:21:58.229Z,53.63
2018-02-10T10:24:23.998Z,47.65
2018-02-10T10:26:49.784Z,47.30
2018-02-10T10:29:15.770Z,44.27
2018-02-10T10:31:41.548Z,40.58
2018-02-10T10:34:07.829Z,41.63
2018-02-10T10:36:34.780Z,46.97
2018-02-10T10:39:01.235Z,45.28
2018-02-10T10:41:27.270Z,45.08
2018-02-10T10:43:53.125Z,44.95
2018-02-10T10:46:19.134Z,41.80
2018-02-10T10:48:44.946Z,46.70
2018-02-10T10:51:10.939Z,44.10
2018-02-10T10:53:36.904Z,46.78
2018-02-10T10:56:02.713Z,44.53
2018-02-10T10:58:28.524Z,44.70
2018-02-10T11:00:54.468Z,44.97
2018-02-10T11:03:20.246Z,46.27
2018-02-10T11:05:46.330Z,43.17
2018-02-10T11:08:12.100Z,44.85
2018-02-10T11:10:37.967Z,37.20
2018-02-10T11:13:03.775Z,38.70
2018-02-10T11:15:29.669Z,35.73
2018-02-10T11:17:55.445Z,45.37
2018-02-10T11:20:21.656Z,38.47
2018-02-10T11:22:47.455Z,35.63
2018-02-10T11:25:13.237Z,42.33
2018-02-10T11:27:39.040Z,24.97
2018-02-10T11:30:04.895Z,29.63
2018-02-10T11:32:30.754Z,37.57
2018-02-10T11:34:56.586Z,27.57
2018-02-10T11:37:22.383Z,21.13
2018-02-10T11:39:48.193Z,26.80
2018-02-10T11:42:14.018Z,34.73
2018-02-10T11:44:39.805Z,23.10
2018-02-10T11:47:05.907Z,26.40
2018-02-10T11:49:31.998Z,20.90
2018-02-10T11:51:57.743Z,17.37
2018-02-10T11:54:23.541Z,23.13
2018-02-10T11:56:49.339Z,19.00
2018-02-10T11:59:15.347Z,24.60
2018-02-10T12:01:41.148Z,20.95
2018-02-10T12:04:07.008Z,14.77
2018-02-10T12:06:32.922Z,23.03
2018-02-10T12:08:58.803Z,17.37
2018-02-10T12:11:24.587Z,14.67
2018-02-10T12:13:50.359Z,22.90
2018-02-10T12:16:16.506Z,24.00
2018-02-10T12:18:42.678Z,27.40
2018-02-10T12:21:08.457Z,25.98
2018-02-10T12:23:34.262Z,26.40
2018-02-10T12:26:00.054Z,25.60
2018-02-10T12:28:26.062Z,22.53
2018-02-10T12:30:51.882Z,28.58
2018-02-10T12:33:17.689Z,23.73
2018-02-10T12:35:43.476Z,21.30
2018-02-10T12:38:09.497Z,22.43
2018-02-10T12:40:35.632Z,27.20
2018-02-10T12:43:01.668Z,19.65
2018-02-10T12:45:27.457Z,24.25
2018-02-10T12:47:59.501Z,20.20
2018-02-10T12:50:25.576Z,23.38
2018-02-10T12:52:51.375Z,20.92
2018-02-10T12:55:17.164Z,18.50
2018-02-10T12:57:43.036Z,20.03
2018-02-10T13:00:08.875Z,19.63
2018-02-10T13:02:34.930Z,23.40
2018-02-10T13:05:00.743Z,20.95
2018-02-10T13:07:26.558Z,20.47
2018-02-10T13:09:52.343Z,21.93
2018-02-10T13:12:18.128Z,25.00
2018-02-10T13:14:44.045Z,15.23
2018-02-10T13:17:09.873Z,16.10
2018-02-10T13:19:35.655Z,19.47
2018-02-10T13:22:01.668Z,20.07
2018-02-10T13:24:27.537Z,13.02
2018-02-10T13:26:53.363Z,18.80
2018-02-10T13:29:19.541Z,20.73
2018-02-10T13:31:45.314Z,16.08
2018-02-10T13:34:11.232Z,22.43
2018-02-10T13:36:37.136Z,22.87
2018-02-10T13:39:02.938Z,23.37
2018-02-10T13:41:28.734Z,26.10
2018-02-10T13:43:54.547Z,26.63
2018-02-10T13:46:20.362Z,26.53
2018-02-10T13:48:46.144Z,25.60
2018-02-10T13:51:11.940Z,27.07
2018-02-10T13:53:37.725Z,28.73
2018-02-10T13:56:03.642Z,29.50
2018-02-10T13:58:29.472Z,30.23
2018-02-10T14:00:55.262Z,31.63
2018-02-10T14:03:21.042Z,28.00
2018-02-10T14:05:46.822Z,30.33
2018-02-10T14:08:12.606Z,24.87
2018-02-10T14:10:38.427Z,26.00
2018-02-10T14:13:04.198Z,25.50
2018-02-10T14:15:29.984Z,27.13
2018-02-10T14:17:55.770Z,27.97
2018-02-10T14:20:21.545Z,24.70
2018-02-10T14:22:47.334Z,25.97
2018-02-10T14:25:13.110Z,25.97
2018-02-10T14:27:38.906Z,25.53
2018-02-10T14:30:05.019Z,24.50
2018-02-10T14:32:30.790Z,15.65
2018-02-10T14:34:56.562Z,26.60
2018-02-10T14:37:22.365Z,20.00
2018-02-10T14:39:48.138Z,25.30
2018-02-10T14:42:13.930Z,26.60
2018-02-10T14:44:39.715Z,29.13
2018-02-10T14:47:05.806Z,28.00
2018-02-10T14:49:31.602Z,28.95
2018-02-10T14:51:57.437Z,29.00
2018-02-10T14:54:23.551Z,28.43
2018-02-10T14:56:49.343Z,27.85
2018-02-10T14:59:15.126Z,28.70
2018-02-10T15:01:41.029Z,28.43
2018-02-10T15:04:06.806Z,28.93
2018-02-10T15:06:32.655Z,28.60
2018-02-10T15:08:58.446Z,27.60
2018-02-10T15:11:24.311Z,28.87
2018-02-10T15:13:50.087Z,27.40
2018-02-10T15:16:16.143Z,26.10
2018-02-10T15:18:41.935Z,26.30
2018-02-10T15:21:07.776Z,26.40
2018-02-10T15:23:33.623Z,26.77
2018-02-10T15:25:59.448Z,26.73
2018-02-10T15:28:25.227Z,24.10
2018-02-10T15:31:03.374Z,25.43
2018-02-10T15:33:41.733Z,22.35
2018-02-10T15:36:07.732Z,74.60
2018-02-10T15:38:33.504Z,22.73
2018-02-10T15:40:59.408Z,51.37
2018-02-10T15:43:25.540Z,22.63
2018-02-10T15:45:51.421Z,20.05
2018-02-10T15:48:17.217Z,24.30
2018-02-10T15:50:43.131Z,25.20
2018-02-10T15:53:09.199Z,22.50
2018-02-10T15:55:34.973Z,11.90
2018-02-10T15:58:00.766Z,20.00
2018-02-10T16:00:26.571Z,19.33
2018-02-10T16:02:54.102Z,22.70
2018-02-10T16:05:19.907Z,13.80
2018-02-10T16:07:45.689Z,21.37
2018-02-10T16:10:11.475Z,21.50
2018-02-10T16:12:37.357Z,21.57
2018-02-10T16:15:03.143Z,16.63
2018-02-10T16:17:28.915Z,27.13
2018-02-10T16:19:54.842Z,26.10
2018-02-10T16:22:20.696Z,24.27
2018-02-10T16:24:46.490Z,27.13
2018-02-10T16:27:12.678Z,28.37
2018-02-10T16:29:38.418Z,27.40
2018-02-10T16:32:04.196Z,26.47
2018-02-10T16:34:29.983Z,28.70
2018-02-10T16:36:55.766Z,27.73
2018-02-10T16:39:21.611Z,29.80
2018-02-10T16:41:47.406Z,32.10
2018-02-10T16:44:13.192Z,28.10
2018-02-10T16:46:38.978Z,27.80
2018-02-10T16:49:05.062Z,27.90
2018-02-10T16:51:30.854Z,31.37
2018-02-10T16:53:56.640Z,30.27
2018-02-10T16:56:22.584Z,23.30
2018-02-10T16:58:48.371Z,26.27
2018-02-10T17:01:14.214Z,25.53
2018-02-10T17:03:40.030Z,20.27
2018-02-10T17:06:05.822Z,30.30
2018-02-10T17:08:31.600Z,28.20
2018-02-10T17:10:57.386Z,25.73
2018-02-10T17:13:23.164Z,24.17
2018-02-10T17:15:48.962Z,30.20
2018-02-10T17:18:14.865Z,31.10
2018-02-10T17:20:40.709Z,31.50
2018-02-10T17:23:06.884Z,33.37
2018-02-10T17:25:32.709Z,18.85
2018-02-10T17:27:58.507Z,23.73
2018-02-10T17:30:24.275Z,26.77
2018-02-10T17:32:50.244Z,30.90
2018-02-10T17:35:16.069Z,35.93
2018-02-10T17:37:41.882Z,34.33
2018-02-10T17:40:07.684Z,24.40
2018-02-10T17:42:33.476Z,32.73
2018-02-10T17:44:59.263Z,24.23
2018-02-10T17:47:25.330Z,27.17
2018-02-10T17:49:51.154Z,24.12
2018-02-10T17:52:16.933Z,19.10
2018-02-10T17:54:42.747Z,29.63
2018-02-10T17:57:08.551Z,27.20
2018-02-10T17:59:34.400Z,30.70
2018-02-10T18:02:00.214Z,25.37
2018-02-10T18:04:26.003Z,30.80
2018-02-10T18:06:51.777Z,24.63
2018-02-10T18:09:17.571Z,17.23
2018-02-10T18:11:43.338Z,29.17
2018-02-10T18:14:09.121Z,24.10
2018-02-10T18:16:34.910Z,17.00
2018-02-10T18:19:00.701Z,31.70
2018-02-10T18:21:26.483Z,24.50
2018-02-10T18:23:52.346Z,28.30
2018-02-10T18:26:18.134Z,28.17
2018-02-10T18:28:43.918Z,30.50
2018-02-10T18:31:10.180Z,37.00
2018-02-10T18:33:36.014Z,26.98
2018-02-10T18:36:01.911Z,29.90
2018-02-10T18:38:27.770Z,18.83
2018-02-10T18:40:53.575Z,17.07
2018-02-10T18:43:19.573Z,30.80
2018-02-10T18:45:46.604Z,18.70
2018-02-10T18:48:12.479Z,16.80
2018-02-10T18:50:38.290Z,28.83
2018-02-10T18:53:04.072Z,20.03
2018-02-10T18:55:30.122Z,19.90
2018-02-10T18:57:56.531Z,15.38
2018-02-10T19:00:22.653Z,24.85
2018-02-10T19:02:48.444Z,34.75
2018-02-10T19:05:14.552Z,23.20
2018-02-10T19:07:40.369Z,22.67
2018-02-10T19:10:06.449Z,16.33
2018-02-10T19:12:32.343Z,28.95
2018-02-10T19:14:58.175Z,39.03
2018-02-10T19:17:23.953Z,26.20
2018-02-10T19:19:49.767Z,15.10
2018-02-10T19:22:15.886Z,34.03
2018-02-10T19:24:41.671Z,23.25
2018-02-10T19:27:07.672Z,29.43
2018-02-10T19:29:33.506Z,37.83
2018-02-10T19:31:59.287Z,20.30
2018-02-10T19:34:25.097Z,31.87
2018-02-10T19:36:50.887Z,29.23
2018-02-10T19:39:17.219Z,33.60
2018-02-10T19:41:43.490Z,35.05
2018-02-10T19:44:09.604Z,36.50
2018-02-10T19:46:35.633Z,33.30
2018-02-10T19:49:02.020Z,25.52
2018-02-10T19:51:28.145Z,24.63
2018-02-10T19:53:54.619Z,20.62
2018-02-10T19:56:20.578Z,24.70
2018-02-10T19:58:46.890Z,16.33
2018-02-10T20:01:12.918Z,19.75
2018-02-10T20:03:39.455Z,16.25
2018-02-10T20:06:05.246Z,17.23
2018-02-10T20:08:31.377Z,26.00
2018-02-10T20:10:57.782Z,25.25
2018-02-10T20:13:23.860Z,24.95
2018-02-10T20:15:49.798Z,21.83
2018-02-10T20:18:16.243Z,15.90
2018-02-10T20:20:42.382Z,19.60
2018-02-10T20:23:08.511Z,23.50
2018-02-10T20:25:34.689Z,17.92
2018-02-10T20:28:00.612Z,30.37
2018-02-10T20:30:26.555Z,27.93
2018-02-10T20:32:53.214Z,25.33
2018-02-10T20:35:19.130Z,19.92
2018-02-10T20:37:45.219Z,29.47
2018-02-10T20:40:11.458Z,22.62
2018-02-10T20:42:37.242Z,28.85
2018-02-10T20:45:03.106Z,28.50
2018-02-10T20:47:29.013Z,27.10
2018-02-10T20:49:54.797Z,27.57
2018-02-10T20:52:20.565Z,22.07
2018-02-10T20:54:47.091Z,24.17
2018-02-10T20:57:12.878Z,27.08
2018-02-10T20:59:38.692Z,19.67
2018-02-10T21:02:04.515Z,23.10
2018-02-10T21:04:30.350Z,26.40
2018-02-10T21:06:56.152Z,15.63
2018-02-10T21:09:21.966Z,26.37
2018-02-10T21:11:47.751Z,28.63
2018-02-10T21:14:13.564Z,27.60
2018-02-10T21:16:39.346Z,31.03
2018-02-10T21:19:05.269Z,28.53
2018-02-10T21:21:31.058Z,32.40
2018-02-10T21:23:56.834Z,38.47
2018-02-10T21:26:22.635Z,39.50
2018-02-10T21:28:48.446Z,56.87
2018-02-10T21:31:14.227Z,34.67
2018-02-10T21:33:40.022Z,33.30
2018-02-10T21:36:05.816Z,32.40
2018-02-10T21:38:31.625Z,32.63
2018-02-10T21:40:57.418Z,31.70
2018-02-10T21:43:23.440Z,27.80
2018-02-10T21:45:49.218Z,26.75
2018-02-10T21:48:14.999Z,19.90
2018-02-10T21:50:40.779Z,32.73
2018-02-10T21:53:06.584Z,34.00
2018-02-10T21:55:32.377Z,27.77
2018-02-10T21:57:58.172Z,19.43
2018-02-10T22:00:23.992Z,32.70
2018-02-10T22:02:49.782Z,32.07
2018-02-10T22:05:17.681Z,35.53
2018-02-10T22:07:43.894Z,29.87
2018-02-10T22:10:09.750Z,36.65
2018-02-10T22:12:35.988Z,38.30
2018-02-10T22:15:01.773Z,35.13
2018-02-10T22:17:27.969Z,31.77
2018-02-10T22:19:53.749Z,39.53
2018-02-10T22:22:19.517Z,40.20
2018-02-10T22:24:45.374Z,38.10
2018-02-10T22:27:11.150Z,31.17
2018-02-10T22:29:37.888Z,34.10
2018-02-10T22:32:03.687Z,35.35
2018-02-10T22:34:29.938Z,27.73
2018-02-10T22:36:55.717Z,34.35
2018-02-10T22:39:21.862Z,34.17
2018-02-10T22:41:47.693Z,24.08
2018-02-10T22:44:14.663Z,27.07
2018-02-10T22:46:40.434Z,32.70
2018-02-10T22:49:06.377Z,34.80
2018-02-10T22:51:32.195Z,34.87
2018-02-10T22:53:58.622Z,33.43
2018-02-10T22:56:24.446Z,32.25
2018-02-10T22:58:50.958Z,35.47
2018-02-10T23:01:16.753Z,40.60
2018-02-10T23:03:43.513Z,32.03
2018-02-10T23:06:09.307Z,29.90
2018-02-10T23:08:35.681Z,28.90
2018-02-10T23:11:01.462Z,36.00
2018-02-10T23:13:27.252Z,33.70
2018-02-10T23:15:53.033Z,34.20
2018-02-10T23:18:18.869Z,33.20
2018-02-10T23:20:44.660Z,31.97
2018-02-10T23:23:12.748Z,22.40
2018-02-10T23:25:38.560Z,23.87
2018-02-10T23:28:04.717Z,26.47
2018-02-10T23:30:30.693Z,19.73
2018-02-10T23:32:56.771Z,26.93
2018-02-10T23:35:29.834Z,30.58
2018-02-10T23:37:55.631Z,31.15
2018-02-10T23:40:21.646Z,30.70
2018-02-10T23:42:47.458Z,23.70
2018-02-10T23:45:13.707Z,27.23
2018-02-10T23:47:39.494Z,28.25
2018-02-10T23:50:05.818Z,30.43
2018-02-10T23:52:31.585Z,31.23
2018-02-10T23:54:57.781Z,22.87
2018-02-10T23:57:23.575Z,29.30
2018-02-10T23:59:49.538Z,21.57
